createdAt,value
2019-02-16T00:02:33.407Z,36.80
2019-02-16T00:05:37.299Z,41.33
2019-02-16T00:08:41.434Z,38.20
2019-02-16T00:11:44.987Z,36.13
2019-02-16T00:14:48.530Z,36.50
2019-02-16T00:17:52.082Z,39.93
2019-02-16T00:21:03.791Z,31.30
2019-02-16T00:24:01.157Z,32.83
2019-02-16T00:27:04.711Z,29.43
2019-02-16T00:30:08.578Z,32.90
2019-02-16T00:33:12.132Z,29.60
2019-02-16T00:36:15.681Z,33.80
2019-02-16T00:39:19.547Z,30.30
2019-02-16T00:42:23.094Z,31.43
2019-02-16T00:45:26.643Z,32.47
2019-02-16T00:48:30.471Z,25.63
2019-02-16T00:51:34.332Z,28.70
2019-02-16T00:54:37.880Z,27.93
2019-02-16T00:57:41.427Z,23.70
2019-02-16T01:00:44.963Z,27.23
2019-02-16T01:03:48.540Z,24.97
2019-02-16T01:06:52.379Z,26.73
2019-02-16T01:09:55.913Z,25.63
2019-02-16T01:12:59.776Z,22.97
2019-02-16T01:16:03.345Z,21.87
2019-02-16T01:19:06.895Z,20.97
2019-02-16T01:22:10.445Z,19.90
2019-02-16T01:25:14.324Z,20.17
2019-02-16T01:28:17.874Z,21.03
2019-02-16T01:31:21.429Z,19.57
2019-02-16T01:34:25.199Z,22.37
2019-02-16T01:37:28.752Z,19.77
2019-02-16T01:40:32.634Z,17.90
2019-02-16T01:43:36.183Z,20.67
2019-02-16T01:46:40.027Z,15.73
2019-02-16T01:49:43.574Z,15.53
2019-02-16T01:52:47.118Z,16.50
2019-02-16T01:55:50.656Z,16.80
2019-02-16T01:58:54.461Z,16.63
2019-02-16T02:01:58.011Z,15.63
2019-02-16T02:05:01.551Z,16.97
2019-02-16T02:08:05.115Z,13.00
2019-02-16T02:11:09.018Z,13.77
2019-02-16T02:14:12.566Z,14.60
2019-02-16T02:17:16.740Z,15.63
2019-02-16T02:20:20.584Z,12.83
2019-02-16T02:23:24.128Z,15.87
2019-02-16T02:26:27.665Z,13.20
2019-02-16T02:29:31.389Z,14.27
2019-02-16T02:32:34.943Z,15.13
2019-02-16T02:35:38.840Z,13.47
2019-02-16T02:38:42.388Z,12.20
2019-02-16T02:41:46.224Z,12.43
2019-02-16T02:44:49.765Z,12.33
2019-02-16T02:47:53.329Z,11.37
2019-02-16T02:50:56.867Z,11.43
2019-02-16T02:54:00.661Z,15.73
2019-02-16T02:57:04.190Z,12.20
2019-02-16T03:00:08.287Z,11.27
2019-02-16T03:03:11.832Z,12.00
2019-02-16T03:06:15.370Z,12.90
2019-02-16T03:09:18.919Z,12.20
2019-02-16T03:12:22.458Z,11.10
2019-02-16T03:15:26.011Z,10.93
2019-02-16T03:18:29.563Z,11.07
2019-02-16T03:21:33.104Z,10.47
2019-02-16T03:24:36.662Z,11.43
2019-02-16T03:28:11.376Z,8.90
2019-02-16T03:31:52.223Z,11.33
2019-02-16T03:35:29.344Z,7.60
2019-02-16T03:38:49.034Z,7.47
2019-02-16T03:41:52.597Z,10.03
2019-02-16T03:44:56.512Z,9.47
2019-02-16T03:48:00.035Z,9.60
2019-02-16T03:51:03.583Z,9.17
2019-02-16T03:54:07.128Z,9.23
2019-02-16T03:57:10.657Z,9.13
2019-02-16T04:00:14.336Z,9.20
2019-02-16T04:03:17.952Z,8.60
2019-02-16T04:06:21.499Z,8.40
2019-02-16T04:09:25.336Z,8.67
2019-02-16T04:12:29.122Z,11.03
2019-02-16T04:15:32.667Z,9.97
2019-02-16T04:18:36.225Z,8.13
2019-02-16T04:21:39.749Z,8.53
2019-02-16T04:24:43.559Z,9.13
2019-02-16T04:27:48.199Z,10.17
2019-02-16T04:30:51.737Z,7.40
2019-02-16T04:33:55.565Z,8.27
2019-02-16T04:36:59.109Z,7.43
2019-02-16T04:40:02.675Z,9.87
2019-02-16T04:43:06.206Z,7.70
2019-02-16T04:46:09.745Z,6.10
2019-02-16T04:49:13.276Z,8.27
2019-02-16T04:52:17.113Z,7.03
2019-02-16T04:55:20.922Z,11.20
2019-02-16T04:58:24.836Z,9.23
2019-02-16T05:01:28.969Z,6.83
2019-02-16T05:04:33.060Z,8.83
2019-02-16T05:07:36.605Z,8.03
2019-02-16T05:10:40.804Z,7.80
2019-02-16T05:13:44.736Z,10.60
2019-02-16T05:16:48.283Z,8.27
2019-02-16T05:19:52.159Z,8.20
2019-02-16T05:22:55.701Z,9.33
2019-02-16T05:25:59.535Z,8.73
2019-02-16T05:29:03.064Z,6.47
2019-02-16T05:32:06.611Z,8.63
2019-02-16T05:35:10.142Z,7.17
2019-02-16T05:38:13.690Z,5.97
2019-02-16T05:41:17.232Z,7.00
2019-02-16T05:44:20.779Z,9.00
2019-02-16T05:47:24.323Z,6.10
2019-02-16T05:50:28.156Z,6.57
2019-02-16T05:53:31.703Z,10.87
2019-02-16T05:56:35.598Z,48.50
2019-02-16T05:59:39.127Z,37.80
2019-02-16T06:02:42.924Z,39.93
2019-02-16T06:05:46.492Z,43.10
2019-02-16T06:08:50.037Z,40.10
2019-02-16T06:11:53.859Z,42.07
2019-02-16T06:14:57.930Z,36.27
2019-02-16T06:18:01.487Z,36.60
2019-02-16T06:21:05.024Z,34.17
2019-02-16T06:24:08.571Z,36.00
2019-02-16T06:27:12.122Z,34.80
2019-02-16T06:30:15.665Z,34.57
2019-02-16T06:33:19.838Z,31.93
2019-02-16T06:36:28.095Z,37.23
2019-02-16T06:39:31.664Z,29.70
2019-02-16T06:42:35.484Z,31.90
2019-02-16T06:45:39.311Z,33.67
2019-02-16T06:48:43.134Z,30.60
2019-02-16T06:51:46.678Z,28.93
2019-02-16T06:54:50.220Z,29.73
2019-02-16T06:57:55.387Z,28.87
2019-02-16T07:00:59.236Z,30.97
2019-02-16T07:04:02.784Z,26.50
2019-02-16T07:07:06.331Z,26.77
2019-02-16T07:10:09.974Z,28.20
2019-02-16T07:13:13.512Z,24.83
2019-02-16T07:16:45.332Z,25.67
2019-02-16T07:19:52.267Z,23.63
2019-02-16T07:22:55.823Z,24.13
2019-02-16T07:25:59.603Z,24.00
2019-02-16T07:29:03.152Z,22.60
2019-02-16T07:32:06.731Z,23.50
2019-02-16T07:35:10.351Z,22.60
2019-02-16T07:38:14.159Z,20.03
2019-02-16T07:41:18.375Z,19.47
2019-02-16T07:44:37.074Z,20.17
2019-02-16T07:47:49.783Z,27.57
2019-02-16T07:50:57.898Z,81.03
2019-02-16T07:54:19.427Z,57.73
2019-02-16T07:57:35.743Z,42.23
2019-02-16T08:00:59.811Z,51.50
2019-02-16T08:04:10.693Z,57.20
2019-02-16T08:07:32.000Z,68.93
2019-02-16T08:10:48.983Z,70.50
2019-02-16T08:14:02.777Z,60.27
2019-02-16T08:17:18.750Z,61.50
2019-02-16T08:20:41.882Z,50.10
2019-02-16T08:23:56.447Z,46.23
2019-02-16T08:27:20.124Z,45.93
2019-02-16T08:30:45.549Z,42.73
2019-02-16T08:33:58.078Z,38.67
2019-02-16T08:37:20.922Z,36.23
2019-02-16T08:40:42.056Z,38.73
2019-02-16T08:44:04.511Z,36.93
2019-02-16T08:47:23.588Z,35.87
2019-02-16T08:50:45.094Z,37.67
2019-02-16T08:53:58.211Z,33.93
2019-02-16T08:57:19.919Z,33.87
2019-02-16T09:00:41.887Z,29.55
2019-02-16T09:04:07.459Z,27.93
2019-02-16T09:07:29.215Z,27.45
2019-02-16T09:11:01.099Z,27.17
2019-02-16T09:14:26.484Z,25.23
2019-02-16T09:17:48.456Z,25.30
2019-02-16T09:21:14.684Z,24.05
2019-02-16T09:24:33.375Z,22.85
2019-02-16T09:27:54.995Z,21.60
2019-02-16T09:31:16.139Z,21.52
2019-02-16T09:34:29.223Z,36.48
2019-02-16T09:37:50.738Z,18.57
2019-02-16T09:41:12.461Z,20.90
2019-02-16T09:44:35.602Z,19.07
2019-02-16T09:47:57.158Z,19.67
2019-02-16T09:51:13.154Z,18.00
2019-02-16T09:54:32.219Z,16.35
2019-02-16T09:57:53.732Z,16.55
2019-02-16T10:01:06.960Z,16.17
2019-02-16T10:04:47.904Z,14.85
2019-02-16T10:08:05.482Z,16.30
2019-02-16T10:11:31.425Z,11.50
2019-02-16T10:14:50.056Z,11.47
2019-02-16T10:18:22.610Z,13.23
2019-02-16T10:21:37.110Z,14.70
2019-02-16T10:24:59.772Z,33.07
2019-02-16T10:28:21.299Z,12.40
2019-02-16T10:31:43.931Z,15.67
2019-02-16T10:34:56.537Z,15.83
2019-02-16T10:38:07.632Z,19.87
2019-02-16T10:41:36.218Z,17.10
2019-02-16T10:44:57.335Z,25.67
2019-02-16T10:48:19.916Z,19.00
2019-02-16T10:51:41.518Z,14.67
2019-02-16T10:54:54.739Z,15.67
2019-02-16T10:58:13.408Z,16.23
2019-02-16T11:01:29.585Z,15.57
2019-02-16T11:04:49.273Z,21.73
2019-02-16T11:07:58.921Z,23.57
2019-02-16T11:11:21.782Z,24.93
2019-02-16T11:14:40.536Z,19.67
2019-02-16T11:18:06.208Z,21.37
2019-02-16T11:21:35.353Z,16.60
2019-02-16T11:25:10.114Z,19.57
2019-02-16T11:28:39.605Z,18.10
2019-02-16T11:32:01.160Z,32.73
2019-02-16T11:35:12.010Z,30.03
2019-02-16T11:38:27.303Z,20.57
2019-02-16T11:41:38.664Z,19.03
2019-02-16T11:45:00.707Z,20.97
2019-02-16T11:48:22.358Z,18.40
2019-02-16T11:51:48.122Z,17.27
2019-02-16T11:55:01.934Z,18.80
2019-02-16T11:58:30.341Z,17.77
2019-02-16T12:01:50.993Z,19.83
2019-02-16T12:05:06.679Z,21.20
2019-02-16T12:08:20.514Z,20.53
2019-02-16T12:11:48.806Z,28.73
2019-02-16T12:15:19.872Z,17.10
2019-02-16T12:18:41.427Z,21.67
2019-02-16T12:21:50.809Z,17.97
2019-02-16T12:25:06.029Z,23.67
2019-02-16T12:28:22.395Z,22.63
2019-02-16T12:31:36.760Z,17.90
2019-02-16T12:34:54.901Z,16.67
2019-02-16T12:38:26.810Z,13.20
2019-02-16T12:41:43.070Z,15.23
2019-02-16T12:44:56.401Z,11.20
2019-02-16T12:48:21.898Z,13.90
2019-02-16T12:51:45.595Z,9.33
2019-02-16T12:55:20.114Z,12.23
2019-02-16T12:58:33.032Z,9.03
2019-02-16T13:01:42.793Z,12.27
2019-02-16T13:05:05.372Z,9.33
2019-02-16T13:08:24.323Z,9.73
2019-02-16T13:11:43.471Z,8.93
2019-02-16T13:15:09.048Z,8.90
2019-02-16T13:18:20.267Z,10.43
2019-02-16T13:21:48.752Z,6.90
2019-02-16T13:24:58.069Z,9.17
2019-02-16T13:28:20.816Z,7.73
2019-02-16T13:31:43.686Z,10.23
2019-02-16T13:35:06.268Z,8.07
2019-02-16T13:38:21.193Z,7.23
2019-02-16T13:41:56.332Z,8.10
2019-02-16T13:45:06.021Z,6.80
2019-02-16T13:48:17.616Z,8.80
2019-02-16T13:51:55.678Z,5.73
2019-02-16T13:55:16.631Z,8.10
2019-02-16T13:58:39.686Z,6.87
2019-02-16T14:02:09.423Z,7.87
2019-02-16T14:05:24.650Z,7.60
2019-02-16T14:08:46.193Z,6.70
2019-02-16T14:11:59.137Z,7.30
2019-02-16T14:15:12.664Z,6.17
2019-02-16T14:18:16.216Z,5.67
2019-02-16T14:21:19.764Z,6.87
2019-02-16T14:24:41.061Z,5.40
2019-02-16T14:27:44.627Z,7.87
2019-02-16T14:30:48.510Z,8.87
2019-02-16T14:33:52.070Z,6.70
2019-02-16T14:36:55.607Z,6.30
2019-02-16T14:39:59.136Z,6.03
2019-02-16T14:43:02.724Z,5.57
2019-02-16T14:46:06.269Z,5.67
2019-02-16T14:49:09.796Z,6.27
2019-02-16T14:52:13.340Z,5.63
2019-02-16T14:55:16.915Z,6.40
2019-02-16T14:58:20.461Z,6.47
2019-02-16T15:01:24.308Z,6.30
2019-02-16T15:04:28.086Z,6.30
2019-02-16T15:07:31.626Z,8.20
2019-02-16T15:10:35.157Z,5.17
2019-02-16T15:13:38.729Z,6.73
2019-02-16T15:16:42.280Z,5.97
2019-02-16T15:19:45.827Z,8.97
2019-02-16T15:22:49.670Z,6.30
2019-02-16T15:26:00.684Z,5.10
2019-02-16T15:28:58.468Z,5.80
2019-02-16T15:32:02.282Z,6.43
2019-02-16T15:35:06.016Z,6.40
2019-02-16T15:38:09.559Z,5.60
2019-02-16T15:41:13.100Z,6.40
2019-02-16T15:44:16.641Z,5.23
2019-02-16T15:47:20.222Z,5.23
2019-02-16T15:50:23.754Z,6.37
2019-02-16T15:53:27.300Z,5.33
2019-02-16T15:56:30.838Z,6.47
2019-02-16T15:59:35.433Z,5.57
2019-02-16T16:02:39.154Z,6.07
2019-02-16T16:05:42.697Z,5.77
2019-02-16T16:08:51.705Z,5.47
2019-02-16T16:12:08.138Z,5.10
2019-02-16T16:15:20.026Z,4.83
2019-02-16T16:18:31.012Z,8.47
2019-02-16T16:21:43.826Z,6.63
2019-02-16T16:24:55.932Z,8.87
2019-02-16T16:28:21.929Z,6.63
2019-02-16T16:31:33.141Z,7.97
2019-02-16T16:34:51.397Z,6.10
2019-02-16T16:38:10.683Z,7.40
2019-02-16T16:41:40.070Z,5.40
2019-02-16T16:44:56.387Z,8.27
2019-02-16T16:48:11.864Z,6.83
2019-02-16T16:51:29.253Z,6.50
2019-02-16T16:54:52.105Z,5.70
2019-02-16T16:58:30.021Z,5.97
2019-02-16T17:01:49.294Z,27.53
2019-02-16T17:05:11.874Z,14.20
2019-02-16T17:08:40.352Z,19.30
2019-02-16T17:12:03.896Z,9.00
2019-02-16T17:15:27.713Z,8.87
2019-02-16T17:18:59.380Z,8.97
2019-02-16T17:22:10.651Z,11.27
2019-02-16T17:25:31.276Z,9.90
2019-02-16T17:28:44.293Z,7.20
2019-02-16T17:31:55.562Z,9.17
2019-02-16T17:35:18.149Z,8.90
2019-02-16T17:38:34.116Z,9.20
2019-02-16T17:41:56.675Z,9.53
2019-02-16T17:45:24.533Z,11.40
2019-02-16T17:48:58.754Z,8.20
2019-02-16T17:52:19.350Z,8.63
2019-02-16T17:55:41.963Z,12.53
2019-02-16T17:58:53.899Z,8.60
2019-02-16T18:02:15.329Z,10.07
2019-02-16T18:05:37.945Z,9.57
2019-02-16T18:09:00.941Z,9.00
2019-02-16T18:12:32.664Z,8.00
2019-02-16T18:15:58.868Z,10.83
2019-02-16T18:19:14.229Z,9.27
2019-02-16T18:22:46.188Z,7.93
2019-02-16T18:25:58.254Z,9.53
2019-02-16T18:29:11.028Z,8.70
2019-02-16T18:32:31.146Z,12.47
2019-02-16T18:35:47.182Z,6.67
2019-02-16T18:39:11.346Z,9.17
2019-02-16T18:42:34.838Z,9.87
2019-02-16T18:45:55.318Z,13.30
2019-02-16T18:49:04.984Z,12.17
2019-02-16T18:52:30.421Z,10.40
2019-02-16T18:56:02.113Z,10.47
2019-02-16T18:59:19.702Z,9.70
2019-02-16T19:02:31.011Z,6.50
2019-02-16T19:06:00.821Z,7.00
2019-02-16T19:09:24.272Z,8.27
2019-02-16T19:12:57.545Z,9.87
2019-02-16T19:16:16.317Z,4.90
2019-02-16T19:19:34.785Z,10.27
2019-02-16T19:22:56.894Z,8.30
2019-02-16T19:26:10.328Z,7.40
2019-02-16T19:29:29.217Z,7.53
2019-02-16T19:32:46.002Z,12.03
2019-02-16T19:36:05.120Z,9.33
2019-02-16T19:39:15.566Z,6.87
2019-02-16T19:42:38.153Z,9.03
2019-02-16T19:45:48.512Z,8.23
2019-02-16T19:49:10.693Z,10.80
2019-02-16T19:52:34.160Z,6.30
2019-02-16T19:55:47.113Z,6.63
2019-02-16T19:59:15.812Z,6.67
2019-02-16T20:02:44.699Z,10.03
2019-02-16T20:06:16.366Z,6.60
2019-02-16T20:09:35.225Z,6.33
2019-02-16T20:13:00.856Z,6.13
2019-02-16T20:16:32.874Z,6.20
2019-02-16T20:20:04.370Z,7.10
2019-02-16T20:23:36.001Z,7.83
2019-02-16T20:26:59.311Z,8.70
2019-02-16T20:30:15.087Z,5.90
2019-02-16T20:33:36.788Z,6.87
2019-02-16T20:36:54.827Z,5.00
2019-02-16T20:40:04.723Z,7.00
2019-02-16T20:43:17.643Z,6.87
2019-02-16T20:46:52.418Z,7.23
2019-02-16T20:50:09.197Z,6.77
2019-02-16T20:53:30.735Z,6.33
2019-02-16T20:56:46.397Z,5.93
2019-02-16T21:00:07.709Z,7.13
2019-02-16T21:03:33.085Z,9.40
2019-02-16T21:06:58.743Z,9.20
2019-02-16T21:10:24.586Z,26.60
2019-02-16T21:13:48.166Z,29.73
2019-02-16T21:16:59.642Z,27.37
2019-02-16T21:20:13.699Z,29.20
2019-02-16T21:23:45.957Z,29.93
2019-02-16T21:27:05.524Z,27.40
2019-02-16T21:30:31.633Z,26.77
2019-02-16T21:33:40.768Z,29.00
2019-02-16T21:37:01.941Z,29.33
2019-02-16T21:40:18.233Z,29.63
2019-02-16T21:43:39.931Z,22.33
2019-02-16T21:46:54.998Z,26.57
2019-02-16T21:50:12.262Z,67.60
2019-02-16T21:53:25.293Z,47.83
2019-02-16T21:56:43.338Z,41.50
2019-02-16T21:59:58.423Z,39.90
2019-02-16T22:03:19.744Z,36.50
2019-02-16T22:06:34.180Z,32.63
2019-02-16T22:09:50.281Z,28.57
2019-02-16T22:13:02.679Z,28.17
2019-02-16T22:16:06.231Z,24.23
2019-02-16T22:19:09.773Z,26.03
2019-02-16T22:22:13.323Z,27.07
2019-02-16T22:25:20.626Z,22.17
2019-02-16T22:28:30.522Z,25.83
2019-02-16T22:31:28.568Z,26.27
2019-02-16T22:34:32.449Z,24.57
2019-02-16T22:37:36.010Z,22.20
2019-02-16T22:40:40.081Z,21.47
2019-02-16T22:43:43.624Z,29.57
2019-02-16T22:46:47.499Z,22.53
2019-02-16T22:49:51.530Z,22.70
2019-02-16T22:52:55.626Z,29.50
2019-02-16T22:55:59.442Z,24.70
2019-02-16T22:59:02.978Z,22.63
2019-02-16T23:02:08.632Z,19.63
2019-02-16T23:05:12.286Z,19.13
2019-02-16T23:08:15.912Z,19.83
2019-02-16T23:11:19.462Z,19.93
2019-02-16T23:14:24.201Z,19.97
2019-02-16T23:17:27.873Z,18.10
2019-02-16T23:20:31.737Z,22.27
2019-02-16T23:23:35.613Z,19.43
2019-02-16T23:26:39.163Z,19.73
2019-02-16T23:29:43.266Z,22.40
2019-02-16T23:32:46.824Z,31.70
2019-02-16T23:35:50.439Z,40.73
2019-02-16T23:38:54.321Z,48.67
2019-02-16T23:41:57.991Z,34.67
2019-02-16T23:45:01.531Z,27.53
2019-02-16T23:48:05.427Z,30.93
2019-02-16T23:51:08.977Z,28.13
2019-02-16T23:54:12.856Z,32.63
2019-02-16T23:57:16.404Z,25.27
